Miami, FL

5:40 PM EDT on September 25, 2016 (GMT -0400)
Little Havana-West Flagler Street in Miami Florida | | Change Station

Elev 13 ft 25.77 °N, 80.25 °W | Updated 34 seconds ago

Mostly Cloudy
Mostly Cloudy
86.7 °F
Feels Like 94 °F
N
4.9
Wind Variable Wind from SE
Gusts 6.9 mph

Today
High -- | Low -- °F
--% Chance of Precip.
Yesterday
High -- | Low -- °F
Precip. -- in
Pressure 29.95 in
Visibility 10.0 miles
Clouds Few 2600 ft
Scattered Clouds 7000 ft
Mostly Cloudy 25000 ft
Heat Index 94 °F
Dew Point 73 °F
Humidity 63%
Rainfall 0.00 in
Snow Depth Not available.
7:11 AM 7:13 PM
Waning Crescent, 24% visible
METAR KMIA 252053Z 10007KT 10SM FEW026 SCT070 BKN250 29/23 A2995 RMK AO2 SLP141 CB DSNT W-NW T02940233 56018 $
Pressure 29.95 in
Visibility 10.0 miles
Clouds Few 2600 ft
Scattered Clouds 7000 ft
Mostly Cloudy 25000 ft
Heat Index 94 °F
Dew Point 73 °F
Humidity 63%
Rainfall 0.00 in
Snow Depth Not available.
7:11 AM 7:13 PM
Waning Crescent, 24% visible
METAR KMIA 252053Z 10007KT 10SM FEW026 SCT070 BKN250 29/23 A2995 RMK AO2 SLP141 CB DSNT W-NW T02940233 56018 $

10-Day Weather Forecast

Almanac

Astronomy

Sep. 25, 2016 Rise Set
Actual Time
Civil Twilight
Nautical Twilight
Astronomical Twilight
Moon
Length of Visible Light
Length of Day
Tomorrow will be .
, % of the Moon is Illuminated

Today's Extremes

State Highs State Lows

Community

WunderPhotos

Upload Photos

1,941,747 photos uploaded!

WunderBlog® & News

Nearby

Air Quality

  Air Quality AQ Index Pollutant
Not available.

Snow Depth

Station Depth Elevation

Earthquake Activity

City Distance Mag. Time & Date
Minimum magnitude displayed is 2.5.

Coastal Water Temperatures

Place Temperature

Stations

Nearby Weather Stations

Station Location Temp. Windchill Dew Point Humidity Wind Precip. Elev Updated Type
                   

Watches & Warnings

There are currently no watches in effect.